Wood Ridge, New Jersey
Current Conditions -  °F | °C
As of 8:51 PM on Wednesday 17 Dec 2014 (Local Time) from KTEB Reporting Station
Overcast Overcast  
Wind Chill: 37°   Ceiling: 5000
Heat Index: 43°   Visibility: 10mi
Dew Point: 33°   Wind: 12mph
Humidity: 68%   Direction: 290°WNW
Pressure: 29.89"   Gusts: NA
Location:  40.85°N, 74.09°W
Report Text: KTEB 180151Z 29010KT 10SM FEW041 OVC050 06/01 A2989 RMK AO2 RAE36 SLP121 P0000 T00610006
Loading
Personal Weather Stations






























Interactive Weather Map New forecast layout! Learn more

10-Day Weather Forecast

Advertisements
Track Severe Weather on mobile